Altura, Minnesota
Current Conditions -  °F | °C
As of 10:14 AM on Saturday 20 Dec 2014 (Local Time) from KONA Reporting Station
Haze Haze  
Wind Chill: 26°   Ceiling: 1400
Heat Index: 32°   Visibility: 5mi
Dew Point: 28°   Wind: 6mph
Humidity: 87%   Direction: 120°ESE
Pressure: 30.21"   Gusts: NA
Location:  44.07°N, 91.94°W
Report Text: KONA 201614Z AUTO 12005KT 5SM HZ OVC014 00/M02 A3021 RMK AO2
Loading
Personal Weather Stations






























Interactive Weather Map New forecast layout! Learn more

10-Day Weather Forecast

Advertisements
Track Severe Weather on mobile